Weather at Active Pass Lighthouse Heliport

Public forecast

Using degrees Celsius for public forecast. Weather courtesy of forecast.io.

Closest aviation weather report (METAR) to Active Pass Lighthouse Heliport

Closest report is Victoria International Airport, 14.6 nm (27.1 km) SSW.

2024/05/21 00:00 (retrieved 41 minutes ago)

CYYJ 210000Z 05006KT 030V100 30SM FEW040 BKN240 16/08 A3017 RMK SC1CI7 SC TR SLP220

Closest aviation forecast (TAF) to Active Pass Lighthouse Heliport

Closest forecast is Victoria Harbour Seaplane Base, 27.2 nm (50.3 km) S.

2024/05/20 21:00 (retrieved 4 hours ago)

TAF CYWH 202040Z 2021/2104 18008KT P6SM FEW030 BKN230 FM210000 22015KT P6SM BKN120 RMK NXT FCST BY 211400Z